createdAt,value
2017-02-21T00:00:58.885Z,1001.14
2017-02-21T00:02:08.850Z,1001.13
2017-02-21T00:03:18.805Z,1001.16
2017-02-21T00:04:29.551Z,1001.16
2017-02-21T00:05:39.897Z,1001.21
2017-02-21T00:06:50.095Z,1001.12
2017-02-21T00:08:00.841Z,1001.17
2017-02-21T00:09:11.200Z,1001.16
2017-02-21T00:10:21.528Z,1001.15
2017-02-21T00:11:32.274Z,1001.16
2017-02-21T00:12:42.904Z,1001.12
2017-02-21T00:13:53.663Z,1001.17
2017-02-21T00:15:04.404Z,1001.15
2017-02-21T00:16:15.164Z,1001.13
2017-02-21T00:17:24.735Z,1001.17
2017-02-21T00:18:35.353Z,1001.18
2017-02-21T00:19:45.716Z,1001.25
2017-02-21T00:20:56.086Z,1001.19
2017-02-21T00:22:05.634Z,1001.19
2017-02-21T00:23:15.979Z,1001.25
2017-02-21T00:24:26.571Z,1001.16
2017-02-21T00:25:37.336Z,1001.12
2017-02-21T00:26:48.098Z,1001.13
2017-02-21T00:27:58.462Z,1001.17
2017-02-21T00:29:09.215Z,1001.22
2017-02-21T00:30:19.848Z,1001.24
2017-02-21T00:31:29.787Z,1001.22
2017-02-21T00:32:40.142Z,1001.17
2017-02-21T00:33:50.488Z,1001.25
2017-02-21T00:35:00.456Z,1001.22
2017-02-21T00:36:11.048Z,1001.26
2017-02-21T00:37:21.394Z,1001.25
2017-02-21T00:38:31.336Z,1001.28
2017-02-21T00:39:42.091Z,1001.25
2017-02-21T00:40:52.834Z,1001.25
2017-02-21T00:42:03.832Z,1001.28
2017-02-21T00:43:14.574Z,1001.27
2017-02-21T00:44:25.327Z,1001.23
2017-02-21T00:45:35.720Z,1001.16
2017-02-21T00:46:46.053Z,1001.11
2017-02-21T00:47:57.045Z,1001.09
2017-02-21T00:49:07.423Z,1001.08
2017-02-21T00:50:17.746Z,1001.06
2017-02-21T00:51:27.700Z,1001.11
2017-02-21T00:52:37.653Z,1001.06
2017-02-21T00:53:48.684Z,1001.15
2017-02-21T00:54:59.419Z,1001.18
2017-02-21T00:56:09.375Z,1001.21
2017-02-21T00:57:19.739Z,1001.26
2017-02-21T00:58:29.704Z,1001.22
2017-02-21T00:59:40.754Z,1001.27
2017-02-21T01:00:51.496Z,1001.23
2017-02-21T01:02:01.039Z,1001.25
2017-02-21T01:03:11.400Z,1001.26
2017-02-21T01:04:22.148Z,1001.18
2017-02-21T01:05:32.372Z,1001.22
2017-02-21T01:06:43.160Z,1001.22
2017-02-21T01:07:53.532Z,1001.19
2017-02-21T01:09:04.264Z,1001.24
2017-02-21T01:10:15.032Z,1001.29
2017-02-21T01:11:25.660Z,1001.31
2017-02-21T01:12:36.413Z,1001.31
2017-02-21T01:13:46.368Z,1001.31
2017-02-21T01:14:57.122Z,1001.31
2017-02-21T01:16:07.072Z,1001.31
2017-02-21T01:17:17.330Z,1001.38
2017-02-21T01:18:27.704Z,1001.43
2017-02-21T01:19:38.463Z,1001.39
2017-02-21T01:20:49.212Z,1001.36
2017-02-21T01:21:59.566Z,1001.32
2017-02-21T01:23:10.571Z,1001.31
2017-02-21T01:24:21.327Z,1001.29
2017-02-21T01:25:31.279Z,1001.36
2017-02-21T01:26:41.627Z,1001.35
2017-02-21T01:27:51.608Z,1001.28
2017-02-21T01:29:02.206Z,1001.17
2017-02-21T01:30:12.574Z,1001.2
2017-02-21T01:31:23.317Z,1001.25
2017-02-21T01:32:33.262Z,1001.25
2017-02-21T01:33:44.000Z,1001.28
2017-02-21T01:34:54.610Z,1001.26
2017-02-21T01:36:04.963Z,1001.25
2017-02-21T01:37:15.301Z,1001.27
2017-02-21T01:38:25.650Z,1001.29
2017-02-21T01:39:36.020Z,1001.3
2017-02-21T01:40:46.206Z,1001.35
2017-02-21T01:41:56.532Z,1001.4
2017-02-21T01:43:06.875Z,1001.46
2017-02-21T01:44:16.814Z,1001.48
2017-02-21T01:45:26.769Z,1001.52
2017-02-21T01:46:37.815Z,1001.52
2017-02-21T01:47:48.562Z,1001.49
2017-02-21T01:48:59.301Z,1001.51
2017-02-21T01:50:08.857Z,1001.5
2017-02-21T01:51:19.201Z,1001.51
2017-02-21T01:52:30.245Z,1001.51
2017-02-21T01:53:40.174Z,1001.45
2017-02-21T01:54:50.533Z,1001.52
2017-02-21T01:56:00.093Z,1001.5
2017-02-21T01:57:10.443Z,1001.53
2017-02-21T01:58:21.080Z,1001.59
2017-02-21T01:59:31.428Z,1001.62
2017-02-21T02:00:41.765Z,1001.56
2017-02-21T02:01:51.333Z,1001.54
2017-02-21T02:03:01.291Z,1001.56
2017-02-21T02:04:10.725Z,1001.52
2017-02-21T02:05:20.293Z,1001.5
2017-02-21T02:06:30.648Z,1001.48
2017-02-21T02:07:41.390Z,1001.53
2017-02-21T02:08:51.375Z,1001.58
2017-02-21T02:10:01.246Z,1001.55
2017-02-21T02:11:11.195Z,1001.45
2017-02-21T02:12:21.157Z,1001.38
2017-02-21T02:13:31.496Z,1001.39
2017-02-21T02:14:41.080Z,1001.43
2017-02-21T02:15:52.062Z,1001.43
2017-02-21T02:17:02.808Z,1001.41
2017-02-21T02:18:13.556Z,1001.42
2017-02-21T02:19:23.918Z,1001.36
2017-02-21T02:20:34.657Z,1001.3
2017-02-21T02:21:45.272Z,1001.33
2017-02-21T02:22:56.027Z,1001.32
2017-02-21T02:24:06.359Z,1001.31
2017-02-21T02:25:15.928Z,1001.34
2017-02-21T02:26:26.278Z,1001.35
2017-02-21T02:27:36.930Z,1001.38
2017-02-21T02:28:47.669Z,1001.37
2017-02-21T02:29:57.632Z,1001.37
2017-02-21T02:31:08.390Z,1001.38
2017-02-21T02:32:18.363Z,1001.36
2017-02-21T02:33:27.771Z,1001.3
2017-02-21T02:34:38.137Z,1001.34
2017-02-21T02:35:48.894Z,1001.43
2017-02-21T02:36:59.236Z,1001.46
2017-02-21T02:38:09.991Z,1001.45
2017-02-21T02:39:20.609Z,1001.5
2017-02-21T02:40:30.943Z,1001.51
2017-02-21T02:41:40.887Z,1001.44
2017-02-21T02:42:51.644Z,1001.53
2017-02-21T02:44:02.388Z,1001.56
2017-02-21T02:45:13.396Z,1001.56
2017-02-21T02:46:24.162Z,1001.59
2017-02-21T02:47:34.151Z,1001.61
2017-02-21T02:48:44.127Z,1001.61
2017-02-21T02:49:54.078Z,1001.61
2017-02-21T02:51:04.753Z,1001.61
2017-02-21T02:52:14.694Z,1001.63
2017-02-21T02:53:25.428Z,1001.62
2017-02-21T02:54:35.770Z,1001.57
2017-02-21T02:55:46.119Z,1001.58
2017-02-21T02:56:55.978Z,1001.58
2017-02-21T02:58:05.536Z,1001.54
2017-02-21T02:59:16.275Z,1001.55
2017-02-21T03:00:26.631Z,1001.55
2017-02-21T03:01:36.982Z,1001.62
2017-02-21T03:02:47.171Z,1001.59
2017-02-21T03:03:57.527Z,1001.6
2017-02-21T03:05:08.271Z,1001.56
2017-02-21T03:06:18.627Z,1001.6
2017-02-21T03:07:28.188Z,1001.55
2017-02-21T03:08:38.401Z,1001.52
2017-02-21T03:09:47.972Z,1001.53
2017-02-21T03:10:58.362Z,1001.58
2017-02-21T03:12:09.123Z,1001.56
2017-02-21T03:13:19.070Z,1001.58
2017-02-21T03:14:29.676Z,1001.54
2017-02-21T03:15:40.044Z,1001.56
2017-02-21T03:16:50.829Z,1001.55
2017-02-21T03:18:01.165Z,1001.56
2017-02-21T03:19:11.507Z,1001.49
2017-02-21T03:20:22.191Z,1001.58
2017-02-21T03:21:32.144Z,1001.56
2017-02-21T03:22:42.502Z,1001.49
2017-02-21T03:23:53.234Z,1001.51
2017-02-21T03:25:03.971Z,1001.49
2017-02-21T03:26:14.575Z,1001.45
2017-02-21T03:27:24.937Z,1001.52
2017-02-21T03:28:34.872Z,1001.47
2017-02-21T03:29:45.214Z,1001.43
2017-02-21T03:30:55.564Z,1001.45
2017-02-21T03:32:05.762Z,1001.43
2017-02-21T03:33:15.714Z,1001.48
2017-02-21T03:34:26.056Z,1001.44
2017-02-21T03:35:36.118Z,1001.43
2017-02-21T03:36:46.054Z,1001.47
2017-02-21T03:37:56.717Z,1001.45
2017-02-21T03:39:07.456Z,1001.45
2017-02-21T03:40:17.417Z,1001.46
2017-02-21T03:41:28.163Z,1001.44
2017-02-21T03:42:38.540Z,1001.46
2017-02-21T03:43:48.787Z,1001.46
2017-02-21T03:44:58.762Z,1001.4
2017-02-21T03:46:08.732Z,1001.36
2017-02-21T03:47:19.076Z,1001.4
2017-02-21T03:48:29.439Z,1001.46
2017-02-21T03:49:40.435Z,1001.48
2017-02-21T03:50:50.796Z,1001.5
2017-02-21T03:52:01.159Z,1001.56
2017-02-21T03:53:11.488Z,1001.55
2017-02-21T03:54:22.249Z,1001.57
2017-02-21T03:55:32.451Z,1001.6
2017-02-21T03:56:42.435Z,1001.6
2017-02-21T03:57:52.789Z,1001.61
2017-02-21T03:59:02.983Z,1001.58
2017-02-21T04:00:12.921Z,1001.58
2017-02-21T04:01:23.526Z,1001.55
2017-02-21T04:02:34.288Z,1001.59
2017-02-21T04:03:44.246Z,1001.58
2017-02-21T04:04:55.008Z,1001.55
2017-02-21T04:06:05.343Z,1001.56
2017-02-21T04:07:16.332Z,1001.57
2017-02-21T04:08:27.324Z,1001.61
2017-02-21T04:09:37.667Z,1001.6
2017-02-21T04:10:47.612Z,1001.66
2017-02-21T04:11:57.952Z,1001.68
2017-02-21T04:13:08.147Z,1001.65
2017-02-21T04:14:18.492Z,1001.72
2017-02-21T04:15:29.229Z,1001.65
2017-02-21T04:16:39.191Z,1001.62
2017-02-21T04:17:49.149Z,1001.64
2017-02-21T04:18:59.002Z,1001.66
2017-02-21T04:20:09.376Z,1001.63
2017-02-21T04:21:19.725Z,1001.67
2017-02-21T04:22:30.075Z,1001.67
2017-02-21T04:23:40.418Z,1001.67
2017-02-21T04:24:50.682Z,1001.65
2017-02-21T04:26:01.046Z,1001.64
2017-02-21T04:27:11.428Z,1001.65
2017-02-21T04:28:21.008Z,1001.64
2017-02-21T04:29:31.769Z,1001.66
2017-02-21T04:30:42.013Z,1001.68
2017-02-21T04:31:52.359Z,1001.62
2017-02-21T04:33:02.733Z,1001.61
2017-02-21T04:34:12.711Z,1001.62
2017-02-21T04:35:23.079Z,1001.59
2017-02-21T04:36:34.071Z,1001.64
2017-02-21T04:37:44.429Z,1001.56
2017-02-21T04:38:55.174Z,1001.63
2017-02-21T04:40:05.519Z,1001.65
2017-02-21T04:41:15.878Z,1001.69
2017-02-21T04:42:26.461Z,1001.71
2017-02-21T04:43:36.045Z,1001.71
2017-02-21T04:44:45.988Z,1001.73
2017-02-21T04:45:56.397Z,1001.75
2017-02-21T04:47:06.761Z,1001.74
2017-02-21T04:48:17.354Z,1001.72
2017-02-21T04:49:28.103Z,1001.72
2017-02-21T04:50:38.829Z,1001.69
2017-02-21T04:51:48.412Z,1001.73
2017-02-21T04:52:57.965Z,1001.73
2017-02-21T04:54:07.870Z,1001.72
2017-02-21T04:55:17.829Z,1001.7
2017-02-21T04:56:27.777Z,1001.73
2017-02-21T04:57:38.516Z,1001.77
2017-02-21T04:58:48.068Z,1001.76
2017-02-21T04:59:58.713Z,1001.78
2017-02-21T05:01:09.054Z,1001.78
2017-02-21T05:02:19.827Z,1001.79
2017-02-21T05:03:30.183Z,1001.79
2017-02-21T05:04:40.944Z,1001.86
2017-02-21T05:05:51.543Z,1001.88
2017-02-21T05:07:02.291Z,1001.86
2017-02-21T05:08:13.034Z,1001.85
2017-02-21T05:09:23.789Z,1001.75
2017-02-21T05:10:33.773Z,1001.78
2017-02-21T05:11:44.397Z,1001.76
2017-02-21T05:12:54.746Z,1001.72
2017-02-21T05:14:05.124Z,1001.7
2017-02-21T05:15:15.856Z,1001.66
2017-02-21T05:16:26.618Z,1001.71
2017-02-21T05:17:36.830Z,1001.66
2017-02-21T05:18:46.823Z,1001.67
2017-02-21T05:19:57.184Z,1001.67
2017-02-21T05:21:07.143Z,1001.63
2017-02-21T05:22:17.498Z,1001.65
2017-02-21T05:23:28.151Z,1001.65
2017-02-21T05:24:38.493Z,1001.69
2017-02-21T05:25:48.468Z,1001.65
2017-02-21T05:26:59.217Z,1001.66
2017-02-21T05:28:09.569Z,1001.7
2017-02-21T05:29:19.754Z,1001.73
2017-02-21T05:30:29.333Z,1001.69
2017-02-21T05:31:40.084Z,1001.68
2017-02-21T05:32:50.042Z,1001.73
2017-02-21T05:34:00.384Z,1001.69
2017-02-21T05:35:10.999Z,1001.71
2017-02-21T05:36:21.735Z,1001.73
2017-02-21T05:37:32.475Z,1001.69
2017-02-21T05:38:42.434Z,1001.75
2017-02-21T05:39:52.772Z,1001.75
2017-02-21T05:41:03.424Z,1001.71
2017-02-21T05:42:13.375Z,1001.73
2017-02-21T05:43:23.341Z,1001.7
2017-02-21T05:44:33.729Z,1001.72
2017-02-21T05:45:44.470Z,1001.68
2017-02-21T05:46:54.686Z,1001.72
2017-02-21T05:48:04.247Z,1001.68
2017-02-21T05:49:14.613Z,1001.67
2017-02-21T05:50:24.992Z,1001.67
2017-02-21T05:51:35.361Z,1001.66
2017-02-21T05:52:45.189Z,1001.65
2017-02-21T05:53:55.559Z,1001.66
2017-02-21T05:55:05.518Z,1001.67
2017-02-21T05:56:15.473Z,1001.67
2017-02-21T05:57:25.412Z,1001.67
2017-02-21T05:58:36.093Z,1001.69
2017-02-21T05:59:46.452Z,1001.67
2017-02-21T06:00:57.206Z,1001.65
2017-02-21T06:02:07.546Z,1001.63
2017-02-21T06:03:17.906Z,1001.66
2017-02-21T06:04:28.484Z,1001.66
2017-02-21T06:05:38.443Z,1001.73
2017-02-21T06:06:49.208Z,1001.7
2017-02-21T06:07:59.965Z,1001.72
2017-02-21T06:09:10.315Z,1001.71
2017-02-21T06:10:21.349Z,1001.79
2017-02-21T06:11:31.332Z,1001.83
2017-02-21T06:12:41.679Z,1001.89
2017-02-21T06:13:52.427Z,1001.93
2017-02-21T06:15:03.177Z,1001.88
2017-02-21T06:16:13.780Z,1001.9
2017-02-21T06:17:23.345Z,1001.95
2017-02-21T06:18:34.319Z,1001.92
2017-02-21T06:19:45.092Z,1001.9
2017-02-21T06:20:55.866Z,1001.9
2017-02-21T06:22:06.520Z,1001.91
2017-02-21T06:23:16.878Z,1001.93
2017-02-21T06:24:26.433Z,1001.96
2017-02-21T06:25:36.800Z,1001.95
2017-02-21T06:26:47.572Z,1001.93
2017-02-21T06:27:57.489Z,1001.92
2017-02-21T06:29:07.854Z,1001.86
2017-02-21T06:30:18.603Z,1001.86
2017-02-21T06:31:29.353Z,1001.85
2017-02-21T06:32:40.097Z,1001.88
2017-02-21T06:33:50.692Z,1001.8
2017-02-21T06:35:00.641Z,1001.84
2017-02-21T06:36:10.748Z,1001.88
2017-02-21T06:37:20.692Z,1001.83
2017-02-21T06:38:30.648Z,1001.81
2017-02-21T06:39:41.294Z,1001.83
2017-02-21T06:40:50.865Z,1001.81
2017-02-21T06:42:01.604Z,1001.78
2017-02-21T06:43:11.953Z,1001.78
2017-02-21T06:44:21.927Z,1001.83
2017-02-21T06:45:32.596Z,1001.76
2017-02-21T06:46:42.980Z,1001.71
2017-02-21T06:47:53.731Z,1001.67
2017-02-21T06:49:03.319Z,1001.61
2017-02-21T06:50:13.664Z,1001.67
2017-02-21T06:51:24.334Z,1001.68
2017-02-21T06:52:34.690Z,1001.78
2017-02-21T06:53:45.445Z,1001.87
2017-02-21T06:54:55.835Z,1001.89
2017-02-21T06:56:05.796Z,1001.9
2017-02-21T06:57:16.398Z,1001.89
2017-02-21T06:58:26.359Z,1001.99
2017-02-21T06:59:36.352Z,1002
2017-02-21T07:00:47.111Z,1001.99
2017-02-21T07:01:57.886Z,1001.96
2017-02-21T07:03:09.140Z,1001.95
2017-02-21T07:04:19.555Z,1002
2017-02-21T07:05:29.527Z,1001.95
2017-02-21T07:06:39.892Z,1001.95
2017-02-21T07:07:50.668Z,1001.98
2017-02-21T07:09:01.704Z,1001.92
2017-02-21T07:10:12.467Z,1001.83
2017-02-21T07:11:23.216Z,1001.83
2017-02-21T07:12:33.968Z,1001.89
2017-02-21T07:13:44.335Z,1001.91
2017-02-21T07:14:55.514Z,1001.86
2017-02-21T07:16:05.866Z,1001.84
2017-02-21T07:17:15.838Z,1001.84
2017-02-21T07:18:26.200Z,1001.9
2017-02-21T07:19:36.208Z,1001.91
2017-02-21T07:20:47.264Z,1001.88
2017-02-21T07:21:57.653Z,1001.91
2017-02-21T07:23:08.427Z,1001.91
2017-02-21T07:24:18.866Z,1001.92
2017-02-21T07:25:29.249Z,1001.9
2017-02-21T07:26:39.510Z,1001.92
2017-02-21T07:27:49.483Z,1001.87
2017-02-21T07:29:00.253Z,1001.84
2017-02-21T07:30:11.003Z,1001.76
2017-02-21T07:31:21.348Z,1001.71
2017-02-21T07:32:31.648Z,1001.63
2017-02-21T07:33:42.407Z,1001.56
2017-02-21T07:34:52.743Z,1001.51
2017-02-21T07:36:03.498Z,1001.53
2017-02-21T07:37:13.863Z,1001.5
2017-02-21T07:38:24.463Z,1001.55
2017-02-21T07:39:35.220Z,1001.65
2017-02-21T07:40:45.978Z,1001.69
2017-02-21T07:41:56.343Z,1001.74
2017-02-21T07:43:07.163Z,1001.72
2017-02-21T07:44:18.253Z,1001.67
2017-02-21T07:45:29.022Z,1001.78
2017-02-21T07:46:39.780Z,1001.75
2017-02-21T07:47:50.139Z,1001.76
2017-02-21T07:49:00.507Z,1001.73
2017-02-21T07:50:10.795Z,1001.78
2017-02-21T07:51:21.146Z,1001.73
2017-02-21T07:52:31.912Z,1001.72
2017-02-21T07:53:41.494Z,1001.76
2017-02-21T07:54:51.876Z,1001.75
2017-02-21T07:56:02.499Z,1001.72
2017-02-21T07:57:12.890Z,1001.68
2017-02-21T07:58:23.275Z,1001.73
2017-02-21T07:59:33.630Z,1001.7
2017-02-21T08:00:43.997Z,1001.63
2017-02-21T08:01:53.832Z,1001.67
2017-02-21T08:03:04.598Z,1001.73
2017-02-21T08:04:13.794Z,1001.72
2017-02-21T08:05:24.548Z,1001.75
2017-02-21T08:06:34.939Z,1001.75
2017-02-21T08:07:46.017Z,1001.79
2017-02-21T08:08:56.784Z,1001.78
2017-02-21T08:10:06.783Z,1001.87
2017-02-21T08:11:17.185Z,1001.81
2017-02-21T08:12:28.141Z,1001.86
2017-02-21T08:13:39.157Z,1001.88
2017-02-21T08:14:49.549Z,1001.87
2017-02-21T08:16:00.339Z,1001.9
2017-02-21T08:17:10.736Z,1001.87
2017-02-21T08:18:21.529Z,1001.83
2017-02-21T08:19:31.742Z,1001.87
2017-02-21T08:20:42.531Z,1001.9
2017-02-21T08:21:52.094Z,1001.88
2017-02-21T08:23:02.082Z,1001.89
2017-02-21T08:24:12.850Z,1001.89
2017-02-21T08:25:23.888Z,1001.91
2017-02-21T08:26:34.250Z,1001.9
2017-02-21T08:27:44.637Z,1001.92
2017-02-21T08:28:55.036Z,1001.93
2017-02-21T08:30:05.395Z,1001.92
2017-02-21T08:31:16.172Z,1001.94
2017-02-21T08:32:26.956Z,1001.88
2017-02-21T08:33:37.306Z,1001.94
2017-02-21T08:34:47.255Z,1001.86
2017-02-21T08:35:57.595Z,1001.86
2017-02-21T08:37:07.785Z,1001.87
2017-02-21T08:38:17.752Z,1001.85
2017-02-21T08:39:28.098Z,1001.86
2017-02-21T08:40:38.882Z,1001.9
2017-02-21T08:41:49.923Z,1001.94
2017-02-21T08:43:00.313Z,1001.91
2017-02-21T08:44:11.075Z,1001.87
2017-02-21T08:45:21.826Z,1001.91
2017-02-21T08:46:32.561Z,1001.92
2017-02-21T08:47:43.586Z,1001.89
2017-02-21T08:48:54.338Z,1001.92
2017-02-21T08:50:04.324Z,1001.85
2017-02-21T08:51:13.921Z,1001.86
2017-02-21T08:52:24.693Z,1001.98
2017-02-21T08:53:35.443Z,1001.82
2017-02-21T08:54:45.726Z,1001.83
2017-02-21T08:55:56.068Z,1001.81
2017-02-21T08:57:06.012Z,1001.83
2017-02-21T08:58:15.973Z,1001.81
2017-02-21T08:59:26.596Z,1001.88
2017-02-21T09:00:36.567Z,1001.89
2017-02-21T09:01:46.923Z,1001.88
2017-02-21T09:02:57.271Z,1001.81
2017-02-21T09:04:07.645Z,1001.88
2017-02-21T09:05:18.272Z,1001.87
2017-02-21T09:06:28.629Z,1001.89
2017-02-21T09:07:39.011Z,1001.86
2017-02-21T09:08:49.384Z,1001.96
2017-02-21T09:09:59.354Z,1001.94
2017-02-21T09:11:09.569Z,1001.91
2017-02-21T09:12:19.517Z,1001.92
2017-02-21T09:13:29.893Z,1001.87
2017-02-21T09:14:40.260Z,1001.89
2017-02-21T09:15:50.617Z,1001.94
2017-02-21T09:17:01.704Z,1001.97
2017-02-21T09:18:12.052Z,1002.04
2017-02-21T09:19:22.419Z,1002.11
2017-02-21T09:20:31.968Z,1002.06
2017-02-21T09:21:41.536Z,1002.08
2017-02-21T09:22:52.520Z,1002.17
2017-02-21T09:24:02.909Z,1002.22
2017-02-21T09:25:13.252Z,1002.26
2017-02-21T09:26:24.048Z,1002.27
2017-02-21T09:27:33.859Z,1002.27
2017-02-21T09:28:44.496Z,1002.25
2017-02-21T09:29:55.232Z,1002.27
2017-02-21T09:31:05.592Z,1002.27
2017-02-21T09:32:16.371Z,1002.33
2017-02-21T09:33:26.356Z,1002.31
2017-02-21T09:34:37.360Z,1002.31
2017-02-21T09:35:47.713Z,1002.36
2017-02-21T09:36:58.086Z,1002.33
2017-02-21T09:38:08.428Z,1002.31
2017-02-21T09:39:18.787Z,1002.31
2017-02-21T09:40:29.399Z,1002.35
2017-02-21T09:41:39.785Z,1002.42
2017-02-21T09:42:50.140Z,1002.44
2017-02-21T09:44:00.903Z,1002.44
2017-02-21T09:45:11.279Z,1002.48
2017-02-21T09:46:21.090Z,1002.5
2017-02-21T09:47:31.059Z,1002.56
2017-02-21T09:48:41.052Z,1002.61
2017-02-21T09:49:51.020Z,1002.58
2017-02-21T09:51:01.398Z,1002.56
2017-02-21T09:52:12.704Z,1002.59
2017-02-21T09:53:22.690Z,1002.59
2017-02-21T09:54:33.023Z,1002.65
2017-02-21T09:55:43.780Z,1002.66
2017-02-21T09:56:53.753Z,1002.72
2017-02-21T09:58:04.411Z,1002.81
2017-02-21T09:59:14.767Z,1002.76
2017-02-21T10:00:25.125Z,1002.85
2017-02-21T10:01:35.497Z,1002.78
2017-02-21T10:02:46.066Z,1002.82
2017-02-21T10:03:57.048Z,1002.82
2017-02-21T10:05:07.385Z,1002.83
2017-02-21T10:06:17.768Z,1002.85
2017-02-21T10:07:28.124Z,1002.85
2017-02-21T10:08:38.463Z,1002.95
2017-02-21T10:09:49.502Z,1002.96
2017-02-21T10:10:59.455Z,1002.92
2017-02-21T10:12:08.639Z,1003.02
2017-02-21T10:13:19.004Z,1003.02
2017-02-21T10:14:28.963Z,1003.01
2017-02-21T10:15:39.615Z,1003.09
2017-02-21T10:16:49.167Z,1003.05
2017-02-21T10:17:59.151Z,1003.26
2017-02-21T10:19:08.716Z,1003.21
2017-02-21T10:20:19.487Z,1003.2
2017-02-21T10:21:30.077Z,1003.19
2017-02-21T10:22:40.818Z,1003.21
2017-02-21T10:23:50.800Z,1003.16
2017-02-21T10:25:01.142Z,1003.2
2017-02-21T10:26:11.122Z,1003.22
2017-02-21T10:27:21.746Z,1003.27
2017-02-21T10:28:32.477Z,1003.32
2017-02-21T10:29:43.242Z,1003.39
2017-02-21T10:30:53.603Z,1003.43
2017-02-21T10:32:04.395Z,1003.44
2017-02-21T10:33:15.201Z,1003.43
2017-02-21T10:34:25.994Z,1003.52
2017-02-21T10:35:36.352Z,1003.58
2017-02-21T10:36:46.700Z,1003.53
2017-02-21T10:37:56.268Z,1003.65
2017-02-21T10:39:06.922Z,1003.59
2017-02-21T10:40:16.844Z,1003.62
2017-02-21T10:41:27.603Z,1003.66
2017-02-21T10:42:37.587Z,1003.59
2017-02-21T10:43:47.522Z,1003.56
2017-02-21T10:44:57.781Z,1003.58
2017-02-21T10:46:08.194Z,1003.59
2017-02-21T10:47:18.562Z,1003.61
2017-02-21T10:48:29.318Z,1003.61
2017-02-21T10:49:38.860Z,1003.54
2017-02-21T10:50:49.078Z,1003.6
2017-02-21T10:51:59.837Z,1003.63
2017-02-21T10:53:10.198Z,1003.61
2017-02-21T10:54:20.195Z,1003.62
2017-02-21T10:55:30.948Z,1003.62
2017-02-21T10:56:40.838Z,1003.63
2017-02-21T10:57:51.568Z,1003.62
2017-02-21T10:59:01.937Z,1003.66
2017-02-21T11:00:12.291Z,1003.63
2017-02-21T11:01:23.031Z,1003.6
2017-02-21T11:02:33.620Z,1003.53
2017-02-21T11:03:43.962Z,1003.47
2017-02-21T11:04:54.794Z,1003.46
2017-02-21T11:06:05.145Z,1003.45
2017-02-21T11:07:15.514Z,1003.46
2017-02-21T11:08:26.167Z,1003.53
2017-02-21T11:09:36.519Z,1003.47
2017-02-21T11:10:46.868Z,1003.49
2017-02-21T11:11:57.269Z,1003.55
2017-02-21T11:13:07.613Z,1003.55
2017-02-21T11:14:18.609Z,1003.56
2017-02-21T11:15:28.965Z,1003.6
2017-02-21T11:16:39.354Z,1003.57
2017-02-21T11:17:49.349Z,1003.62
2017-02-21T11:18:59.730Z,1003.55
2017-02-21T11:20:10.153Z,1003.72
2017-02-21T11:21:20.908Z,1003.73
2017-02-21T11:22:30.901Z,1003.68
2017-02-21T11:23:40.863Z,1003.67
2017-02-21T11:24:51.227Z,1003.69
2017-02-21T11:26:01.599Z,1003.78
2017-02-21T11:27:11.969Z,1003.85
2017-02-21T11:28:22.725Z,1003.84
2017-02-21T11:29:33.091Z,1003.89
2017-02-21T11:30:43.720Z,1003.86
2017-02-21T11:31:54.332Z,1003.8
2017-02-21T11:33:05.071Z,1003.87
2017-02-21T11:34:15.432Z,1003.96
2017-02-21T11:35:25.785Z,1003.79
2017-02-21T11:36:36.079Z,1003.83
2017-02-21T11:37:46.956Z,1003.83
2017-02-21T11:38:57.708Z,1003.95
2017-02-21T11:40:07.256Z,1003.95
2017-02-21T11:41:17.610Z,1003.99
2017-02-21T11:42:28.210Z,1003.82
2017-02-21T11:43:38.567Z,1003.99
2017-02-21T11:44:49.319Z,1003.96
2017-02-21T11:45:59.664Z,1003.98
2017-02-21T11:47:09.622Z,1003.9
2017-02-21T11:48:20.631Z,1003.96
2017-02-21T11:49:31.372Z,1003.96
2017-02-21T11:50:41.385Z,1004.03
2017-02-21T11:51:51.369Z,1003.96
2017-02-21T11:53:01.764Z,1003.94
2017-02-21T11:54:12.399Z,1003.97
2017-02-21T11:55:22.378Z,1003.96
2017-02-21T11:56:32.738Z,1003.98
2017-02-21T11:57:42.300Z,1003.96
2017-02-21T11:58:52.665Z,1003.94
2017-02-21T12:00:03.649Z,1003.95
2017-02-21T12:01:14.035Z,1003.96
2017-02-21T12:02:24.003Z,1004.04
2017-02-21T12:03:34.366Z,1004.01
2017-02-21T12:04:45.116Z,1004.04
2017-02-21T12:05:55.353Z,1003.94
2017-02-21T12:07:05.322Z,1003.92
2017-02-21T12:08:15.648Z,1003.99
2017-02-21T12:09:26.074Z,1003.94
2017-02-21T12:10:36.001Z,1003.87
2017-02-21T12:11:47.005Z,1003.97
2017-02-21T12:12:56.561Z,1003.92
2017-02-21T12:14:06.913Z,1003.96
2017-02-21T12:15:17.635Z,1003.99
2017-02-21T12:16:28.378Z,1004.03
2017-02-21T12:17:39.009Z,1004.02
2017-02-21T12:18:49.753Z,1003.98
2017-02-21T12:20:00.740Z,1003.94
2017-02-21T12:21:11.102Z,1003.98
2017-02-21T12:22:21.054Z,1004
2017-02-21T12:23:31.245Z,1004.02
2017-02-21T12:24:41.642Z,1003.99
2017-02-21T12:25:51.245Z,1003.95
2017-02-21T12:27:00.802Z,1003.98
2017-02-21T12:28:11.560Z,1004.08
2017-02-21T12:29:21.792Z,1004.11
2017-02-21T12:30:31.795Z,1003.99
2017-02-21T12:31:42.208Z,1004.03
2017-02-21T12:32:52.557Z,1004.03
2017-02-21T12:34:03.301Z,1003.99
2017-02-21T12:35:13.972Z,1004.03
2017-02-21T12:36:24.710Z,1004.12
2017-02-21T12:37:35.082Z,1004.04
2017-02-21T12:38:45.848Z,1003.97
2017-02-21T12:39:56.627Z,1003.96
2017-02-21T12:41:07.256Z,1004.08
2017-02-21T12:42:17.598Z,1003.95
2017-02-21T12:43:27.949Z,1004.18
2017-02-21T12:44:37.512Z,1004.02
2017-02-21T12:45:48.251Z,1003.95
2017-02-21T12:46:58.524Z,1004.05
2017-02-21T12:48:08.064Z,1003.96
2017-02-21T12:49:18.456Z,1003.95
2017-02-21T12:50:28.423Z,1003.89
2017-02-21T12:51:38.843Z,1003.89
2017-02-21T12:52:49.189Z,1003.83
2017-02-21T12:53:59.589Z,1003.83
2017-02-21T12:55:10.589Z,1003.92
2017-02-21T12:56:21.358Z,1003.91
2017-02-21T12:57:31.960Z,1003.89
2017-02-21T12:58:42.686Z,1003.89
2017-02-21T12:59:53.406Z,1003.99
2017-02-21T13:01:04.196Z,1004
2017-02-21T13:02:14.156Z,1004.02
2017-02-21T13:03:24.760Z,1004.04
2017-02-21T13:04:34.734Z,1004.05
2017-02-21T13:05:45.512Z,1004.03
2017-02-21T13:06:55.487Z,1004.11
2017-02-21T13:08:05.869Z,1004.16
2017-02-21T13:09:16.907Z,1004.12
2017-02-21T13:10:27.698Z,1004.15
2017-02-21T13:11:38.079Z,1004.08
2017-02-21T13:12:47.646Z,1004.15
2017-02-21T13:13:58.290Z,1004.1
2017-02-21T13:15:08.495Z,1004.13
2017-02-21T13:16:19.260Z,1004.13
2017-02-21T13:17:29.599Z,1004.13
2017-02-21T13:18:39.599Z,1004.15
2017-02-21T13:19:50.341Z,1004.2
2017-02-21T13:21:00.529Z,1004.13
2017-02-21T13:22:10.911Z,1004.16
2017-02-21T13:23:21.740Z,1004.21
2017-02-21T13:24:32.100Z,1004.26
2017-02-21T13:25:42.059Z,1004.22
2017-02-21T13:26:52.347Z,1004.26
2017-02-21T13:28:03.086Z,1004.21
2017-02-21T13:29:13.823Z,1004.2
2017-02-21T13:30:24.196Z,1004.17
2017-02-21T13:31:34.181Z,1004.17
2017-02-21T13:32:45.185Z,1004.15
2017-02-21T13:33:55.161Z,1004.25
2017-02-21T13:35:05.511Z,1004.2
2017-02-21T13:36:16.261Z,1004.1
2017-02-21T13:37:26.257Z,1004.19
2017-02-21T13:38:37.270Z,1004.3
2017-02-21T13:39:47.240Z,1004.3
2017-02-21T13:40:57.610Z,1004.37
2017-02-21T13:42:07.962Z,1004.29
2017-02-21T13:43:18.322Z,1004.23
2017-02-21T13:44:28.957Z,1004.15
2017-02-21T13:45:39.328Z,1004.21
2017-02-21T13:46:48.909Z,1004.22
2017-02-21T13:47:59.284Z,1004.2
2017-02-21T13:49:10.026Z,1004.15
2017-02-21T13:50:20.243Z,1004.12
2017-02-21T13:51:30.594Z,1004.14
2017-02-21T13:52:41.328Z,1004.16
2017-02-21T13:53:51.676Z,1004.14
2017-02-21T13:55:02.035Z,1004.15
2017-02-21T13:56:12.681Z,1004.17
2017-02-21T13:57:23.041Z,1004.24
2017-02-21T13:58:33.411Z,1004.16
2017-02-21T13:59:43.786Z,1004.19
2017-02-21T14:02:04.763Z,1004.23
2017-02-21T14:03:15.555Z,1004.15
2017-02-21T14:04:26.306Z,1004.21
2017-02-21T14:05:36.248Z,1004.11
2017-02-21T14:06:47.033Z,1004.19
2017-02-21T14:07:58.044Z,1004.19
2017-02-21T14:09:08.419Z,1004.19
2017-02-21T14:10:19.401Z,1004.24
2017-02-21T14:11:29.350Z,1004.21
2017-02-21T14:12:40.067Z,1004.21
2017-02-21T14:13:50.664Z,1004.15
2017-02-21T14:15:01.417Z,1004.12